KOSH/OSH METAR and TAF weather

Enter ICAO airport designator
Station Type Date Time Source
KOSH METAR 2019/10/23 12:53 UTC NOAA

KOSH 231253Z 23009G19KT 10SM CLR 04/M01 A2977 RMK AO2 SLP089 T00391006


Station Type Date Time Source
KOSH Decoded METAR 2019/10/23 12:53 UTC NOAA

WITTMAN REGIONAL AIRPORT, WI, United States (KOSH) 43-58N 88-33W 248M
Oct 23, 2019 - 08:53 AM EDT / 2019.10.23 1253 UTC
Wind: from the SW (230 degrees) at 10 MPH (9 KT) gusting to 22 MPH (19 KT):0
Visibility: 10 mile(s):0
Sky conditions: clear
Temperature: 39.0 F (3.9 C)
Dew Point: 30.9 F (-0.6 C)
Relative Humidity: 72%
Pressure (altimeter): 29.77 in. Hg (1008 hPa)
ob: KOSH 231253Z 23009G19KT 10SM CLR 04/M01 A2977 RMK AO2 SLP089 T00391006
cycle: 13

Station Type Date Time Source
KOSH TAF 2019/07/30 12:39 UTC NOAA

TAF KOSH 301136Z 3012/3112 36006KT P6SM BKN050
TEMPO 3015/3017 BKN025
FM301700 01006KT P6SM BKN035
FM302200 04005KT P6SM SCT045
FM310200 11003KT P6SM SKC
FM310900 VRB03KT 6SM BR SKC

Example: see airport list